Map

Track Data

SID SEASON NUMBER BASIN SUBBASIN NAME ISO_TIME NATURE LAT LON WMO_WIND WMO_PRES WMO_AGENCY TRACK_TYPE DIST2LAND LANDFALL IFLAG USA_AGENCY USA_ATCF_ID USA_LAT USA_LON USA_RECORD USA_STATUS USA_WIND USA_PRES USA_SSHS USA_R34_NE USA_R34_SE USA_R34_SW USA_R34_NW USA_R50_NE USA_R50_SE USA_R50_SW USA_R50_NW USA_R64_NE USA_R64_SE USA_R64_SW USA_R64_NW USA_POCI USA_ROCI USA_RMW USA_EYE TOKYO_LAT TOKYO_LON TOKYO_GRADE TOKYO_WIND TOKYO_PRES TOKYO_R50_DIR TOKYO_R50_LONG TOKYO_R50_SHORT TOKYO_R30_DIR TOKYO_R30_LONG TOKYO_R30_SHORT TOKYO_LAND CMA_LAT CMA_LON CMA_CAT CMA_WIND CMA_PRES HKO_LAT HKO_LON HKO_CAT HKO_WIND HKO_PRES NEWDELHI_LAT NEWDELHI_LON NEWDELHI_GRADE NEWDELHI_WIND NEWDELHI_PRES NEWDELHI_CI NEWDELHI_DP NEWDELHI_POCI REUNION_LAT REUNION_LON REUNION_TYPE REUNION_WIND REUNION_PRES REUNION_TNUM REUNION_CI REUNION_RMW REUNION_R34_NE REUNION_R34_SE REUNION_R34_SW REUNION_R34_NW REUNION_R50_NE REUNION_R50_SE REUNION_R50_SW REUNION_R50_NW REUNION_R64_NE REUNION_R64_SE REUNION_R64_SW REUNION_R64_NW BOM_LAT BOM_LON BOM_TYPE BOM_WIND BOM_PRES BOM_TNUM BOM_CI BOM_RMW BOM_R34_NE BOM_R34_SE BOM_R34_SW BOM_R34_NW BOM_R50_NE BOM_R50_SE BOM_R50_SW BOM_R50_NW BOM_R64_NE BOM_R64_SE BOM_R64_SW BOM_R64_NW BOM_ROCI BOM_POCI BOM_EYE BOM_POS_METHOD BOM_PRES_METHOD NADI_LAT NADI_LON NADI_CAT NADI_WIND NADI_PRES WELLINGTON_LAT WELLINGTON_LON WELLINGTON_WIND WELLINGTON_PRES DS824_LAT DS824_LON DS824_STAGE DS824_WIND DS824_PRES TD9636_LAT TD9636_LON TD9636_STAGE TD9636_WIND TD9636_PRES TD9635_LAT TD9635_LON TD9635_WIND TD9635_PRES TD9635_ROCI NEUMANN_LAT NEUMANN_LON NEUMANN_CLASS NEUMANN_WIND NEUMANN_PRES MLC_LAT MLC_LON MLC_CLASS MLC_WIND MLC_PRES USA_GUST BOM_GUST BOM_GUST_PER REUNION_GUST REUNION_GUST_PER USA_SEAHGT USA_SEARAD_NE USA_SEARAD_SE USA_SEARAD_SW USA_SEARAD_NW STORM_SPEED STORM_DIR
2003021S11081 2003 7 SI MM FARI 2003-01-21 00:00:00 TS -11.2000 81.0000 main 1916 1916 O___________O_ jtwc_sh SH112003 -11.2000 81.0000 TD 20 1004 -1 1008 140 15 -11.2000 81.0000 TC 20 4 188
2003021S11081 2003 7 SI MM FARI 2003-01-21 03:00:00 TS -11.4000 80.9875 main 1938 1938 P___________P_ SH112003 -11.4000 80.9875 TD 20 1004 -1 -11.4000 80.9875 TC 20 4 0
2003021S11081 2003 7 SI MM FARI 2003-01-21 06:00:00 TS -11.6000 81.0000 main 1961 1961 O___________O_ jtwc_sh SH112003 -11.6000 81.0000 TD 20 1004 -1 -11.6000 81.0000 TC 20 4 172
2003021S11081 2003 7 SI MM FARI 2003-01-21 09:00:00 TS -11.8000 81.0500 main 1983 1983 P___________P_ SH112003 -11.8000 81.0500 TD 20 1004 -1 -11.8000 81.0500 TC 20 4 167
2003021S11081 2003 7 SI MM FARI 2003-01-21 12:00:00 TS -12.0000 81.1000 main 2006 2006 O___________O_ jtwc_sh SH112003 -12.0000 81.1000 TD 20 1004 -1 -12.0000 81.1000 TC 20 4 169
2003021S11081 2003 7 SI MM FARI 2003-01-21 15:00:00 TS -12.2075 81.1300 main 2028 2028 P___________P_ SH112003 -12.2075 81.1300 TD 20 1004 -1 -12.2075 81.1300 TC 20 4 0
2003021S11081 2003 7 SI MM FARI 2003-01-21 18:00:00 TS -12.4000 81.1000 main 2051 2051 O___________O_ jtwc_sh SH112003 -12.4000 81.1000 TD 20 1004 -1 -12.4000 81.1000 TC 20 4 200
2003021S11081 2003 7 SI MM FARI 2003-01-21 21:00:00 TS -12.5800 80.9950 main 2073 2073 P___________P_ SH112003 -12.5800 80.9950 TD 20 1004 -1 -12.5800 80.9950 TC 20 4 224
2003021S11081 2003 7 SI MM FARI 2003-01-22 00:00:00 TS -12.7000 80.8000 main 2084 2083 O___________O_ jtwc_sh SH112003 -12.7000 80.8000 TD 20 1004 -1 -12.7000 80.8000 TC 20 5 255
2003021S11081 2003 7 SI MM FARI 2003-01-22 03:00:00 TS -12.7000 80.5224 main 2083 2083 P___________P_ SH112003 -12.7000 80.5224 TD 20 1004 -1 -12.7000 80.5224 TC 20 6 270
2003021S11081 2003 7 SI MM FARI 2003-01-22 06:00:00 TS -12.7000 80.2000 main 2084 2084 O___________O_ jtwc_sh SH112003 -12.7000 80.2000 TD 20 1004 -1 -12.7000 80.2000 TC 20 6 258
2003021S11081 2003 7 SI MM FARI 2003-01-22 09:00:00 TS -12.8198 79.9299 main 2096 2096 P___________P_ SH112003 -12.8198 79.9299 TD 20 1004 -1 -12.8198 79.9299 TC 20 7 243
2003021S11081 2003 7 SI MM FARI 2003-01-22 12:00:00 TS -13.0000 79.6000 main 2120 2120 O___________O_ jtwc_sh SH112003 -13.0000 79.6000 TD 20 1004 -1 -13.0000 79.6000 TC 20 9 244
2003021S11081 2003 7 SI MM FARI 2003-01-22 15:00:00 TS -13.1925 79.1375 main 2146 2146 P___________P_ SH112003 -13.1925 79.1375 TD 25 1002 -1 -13.1925 79.1375 TC 25 11 248
2003021S11081 2003 7 SI MM FARI 2003-01-22 18:00:00 TS -13.4000 78.6000 main 2173 2173 O___________O_ jtwc_sh SH112003 -13.4000 78.6000 TD 30 1000 -1 -13.4000 78.6000 TC 30 11 249
2003021S11081 2003 7 SI MM FARI 2003-01-22 21:00:00 TS -13.6075 78.0500 main 2202 2203 P___________P_ SH112003 -13.6075 78.0500 TD 30 1000 -1 -13.6075 78.0500 TC 30 11 249
2003021S11081 2003 7 SI MM FARI 2003-01-23 00:00:00 TS -13.8000 77.5000 main 2215 2160 O___________O_ jtwc_sh SH112003 -13.8000 77.5000 TD 30 1000 -1 -13.8000 77.5000 TC 30 11 252
2003021S11081 2003 7 SI MM FARI 2003-01-23 03:00:00 TS -13.9499 76.9923 main 2160 2102 P___________P_ SH112003 -13.9499 76.9923 TD 30 1000 -1 -13.9499 76.9923 TC 30 10 253
2003021S11081 2003 7 SI MM FARI 2003-01-23 06:00:00 TS -14.1000 76.5000 main 2102 2044 O___________O_ jtwc_sh SH112003 -14.1000 76.5000 TD 30 1000 -1 -14.1000 76.5000 TC 30 10 250
2003021S11081 2003 7 SI MM FARI 2003-01-23 09:00:00 TS -14.2923 76.0074 main 2044 1985 P___________P_ SH112003 -14.2923 76.0074 TD 30 1000 -1 -14.2923 76.0074 TC 30 11 248
2003021S11081 2003 7 SI MM FARI 2003-01-23 12:00:00 TS -14.5000 75.5000 main 1985 1927 O___________O_ jtwc_sh SH112003 -14.5000 75.5000 TD 30 1000 -1 1008 120 15 -14.5000 75.5000 TC 30 11 248
2003021S11081 2003 7 SI MM FARI 2003-01-23 15:00:00 TS -14.7074 74.9575 main 1927 1859 P___________P_ SH112003 -14.7074 74.9575 TD 32 998 -1 1008 125 27 -14.7074 74.9575 TC 32 11 249
2003021S11081 2003 7 SI MM FARI 2003-01-23 18:00:00 TS -14.9000 74.4000 main 1859 1801 O___________O_ jtwc_sh SH112003 -14.9000 74.4000 TS 35 997 0 80 100 100 80 1008 130 40 -14.9000 74.4000 TC 35 11 251
2003021S11081 2003 7 SI MM FARI 2003-01-23 21:00:00 TS -15.0799 73.8426 main 1791 1736 P___________P_ SH112003 -15.0799 73.8426 TS 35 997 0 80 100 100 80 1008 130 40 -15.0799 73.8426 TC 35 11 254
2003021S11081 2003 7 SI MM FARI 2003-01-24 00:00:00 TS -15.2000 73.3000 main 1736 1687 O___________O_ jtwc_sh SH112003 -15.2000 73.3000 TS 35 997 0 80 100 100 80 1008 130 40 -15.2000 73.3000 TC 35 10 261
2003021S11081 2003 7 SI MM FARI 2003-01-24 03:00:00 TS -15.2373 72.7924 main 1687 1637 P___________P_ SH112003 -15.2373 72.7924 TS 27 1000 -1 -15.2373 72.7924 TC 27 10 270
2003021S11081 2003 7 SI MM FARI 2003-01-24 06:00:00 TS -15.2000 72.3000 main 1637 1597 O___________O_ jtwc_sh SH112003 -15.2000 72.3000 TD 20 1004 -1 -15.2000 72.3000 TC 20 9 276
2003021S11081 2003 7 SI MM FARI 2003-01-24 09:00:00 TS -15.1370 71.8452 main 1592 1547 P___________P_ SH112003 -15.1370 71.8452 TD 20 1004 -1 -15.1370 71.8452 TC 20 10 282
2003021S11081 2003 7 SI MM FARI 2003-01-24 12:00:00 TS -15.0000 71.3000 main 1547 1489 O___________O_ jtwc_sh SH112003 -15.0000 71.3000 TD 20 1004 -1 -15.0000 71.3000 TC 20 13 286
2003021S11081 2003 7 SI MM FARI 2003-01-24 15:00:00 TS -14.7726 70.5448 main 1479 1425 P___________P_ SH112003 -14.7726 70.5448 TD 20 1004 -1 -14.7726 70.5448 TC 20 19 297
2003021S11081 2003 7 SI MM FARI 2003-01-24 18:00:00 TS -14.1222 69.5111 20 1005 reunion main 1421 1356 O____O______O_ jtwc_sh SH112003 -14.5000 69.7000 TD 20 1004 -1 -11.1000 68.0000 2 20 1005 1.00000 1.00000 -14.5000 69.7000 TC 20 22 298
2003021S11081 2003 7 SI MM FARI 2003-01-24 21:00:00 TS -13.7317 68.5309 main 1353 1293 P____P______P_ SH112003 -14.3170 68.9235 TD 20 1004 -1 -11.3908 66.9606 2 20 1004 -14.3170 68.9235 TC 20 21 292
2003021S11081 2003 7 SI MM FARI 2003-01-25 00:00:00 TS -13.3455 67.5273 20 1004 reunion main 1291 1251 O____O______O_ jtwc_sh SH112003 -14.0000 68.1000 TD 20 1004 -1 -11.6000 66.0000 2 20 1004 1.50000 1.50000 -14.0000 68.1000 TC 20 22 297
2003021S11081 2003 7 SI MM FARI 2003-01-25 03:00:00 TS -12.7349 66.5072 main 1251 1220 P____P______P_ SH112003 -13.2625 67.1634 TD 22 1003 -1 -11.6798 65.1948 2 20 1004 -13.2625 67.1634 TC 22 21 300
2003021S11081 2003 7 SI MM FARI 2003-01-25 06:00:00 TS -12.3000 65.6667 20 1004 reunion main 1220 1178 O____O______O_ jtwc_sh SH112003 -12.6000 66.2000 TD 25 1002 -1 -11.7000 64.6000 2 20 1004 1.50000 1.50000 -12.6000 66.2000 TC 25 16 289
2003021S11081 2003 7 SI MM FARI 2003-01-25 09:00:00 TS -12.2238 64.9573 main 1178 1121 P____P______P_ SH112003 -12.4946 65.2937 TD 22 1003 -1 -11.6820 64.2846 2 20 1003 -12.4946 65.2937 TC 22 14 269
2003021S11081 2003 7 SI MM FARI 2003-01-25 12:00:00 TS -12.3333 64.2667 20 1003 reunion main 1121 1051 O____O______O_ jtwc_sh SH112003 -12.6000 64.4000 TD 20 1004 -1 -11.8000 64.0000 2 20 1003 1.50000 1.50000 -12.6000 64.4000 TC 20 15 260
2003021S11081 2003 7 SI MM FARI 2003-01-25 15:00:00 TS -12.4726 63.4542 main 1051 984 P____P______P_ SH112003 -12.5625 63.4622 TD 22 1003 -1 -12.2927 63.4382 2 22 1002 -12.5625 63.4622 TC 22 16 258
2003021S11081 2003 7 SI MM FARI 2003-01-25 18:00:00 TS -12.6667 62.6667 25 1002 reunion main 984 932 O____O______O_ jtwc_sh SH112003 -12.6000 62.6000 TD 25 1002 -1 1007 140 80 -12.8000 62.8000 2 25 1002 2.00000 2.00000 -12.6000 62.6000 TC 25 15 254
2003021S11081 2003 7 SI MM FARI 2003-01-25 21:00:00 TS -12.8713 62.0275 main 926 881 P____P______P_ SH112003 -12.8270 61.9128 TD 25 1002 -1 1006 130 80 -12.9597 62.2570 2 25 1002 -12.8270 61.9128 TC 25 13 252
2003021S11081 2003 7 SI MM FARI 2003-01-26 00:00:00 TS -13.0667 61.4333 25 1002 reunion main 876 839 O____O______O_ jtwc_sh SH112003 -13.1000 61.3000 TD 25 1002 -1 1006 120 80 -13.0000 61.7000 2 25 1002 2.00000 2.00000 -13.1000 61.3000 TC 25 12 255
2003021S11081 2003 7 SI MM FARI 2003-01-26 03:00:00 TS -13.1998 60.7931 main 839 806 P____P______P_ SH112003 -13.2648 60.6498 TD 25 1002 -1 1006 120 80 -13.0698 61.0797 2 25 1002 -13.2648 60.6498 TC 25 13 258
2003021S11081 2003 7 SI MM FARI 2003-01-26 06:00:00 TS -13.3333 60.1333 25 1002 reunion main 802 763 O____O______O_ jtwc_sh SH112003 -13.4000 60.0000 TD 25 1002 -1 1006 120 80 -13.2000 60.4000 2 25 1002 1.50000 2.00000 -13.4000 60.0000 TC 25 13 257
2003021S11081 2003 7 SI MM FARI 2003-01-26 09:00:00 TS -13.5056 59.4672 main 763 725 P____P______P_ SH112003 -13.5423 59.3573 TD 25 1002 -1 1006 120 80 -13.4322 59.6871 2 25 1002 -13.5423 59.3573 TC 25 14 253
2003021S11081 2003 7 SI MM FARI 2003-01-26 12:00:00 TS -13.7333 58.7667 25 1002 reunion main 725 683 O____O______O_ jtwc_sh SH112003 -13.7000 58.7000 TD 25 1002 -1 1006 120 80 -13.8000 58.9000 2 25 1002 2.00000 2.00000 -13.7000 58.7000 TC 25 15 250
2003021S11081 2003 7 SI MM FARI 2003-01-26 15:00:00 TS -14.0301 57.9877 main 683 649 P____P______P_ SH112003 -13.8774 57.9998 TD 25 1002 -1 1006 120 80 -14.3355 57.9633 2 25 1002 -13.8774 57.9998 TC 25 16 247
2003021S11081 2003 7 SI MM FARI 2003-01-26 18:00:00 TS -14.3667 57.2333 25 1002 reunion main 638 619 O____O______O_ jtwc_sh SH112003 -14.1000 57.3000 TD 25 1002 -1 1006 120 80 -14.9000 57.1000 2 25 1002 1.50000 2.00000 -14.1000 57.3000 TC 25 15 245
2003021S11081 2003 7 SI MM FARI 2003-01-26 21:00:00 TS -14.6597 56.6052 main 611 589 P____P______P_ SH112003 -14.3399 56.6271 TD 25 1002 -1 1006 120 77 -15.2992 56.5614 2 25 1002 -14.3399 56.6271 TC 25 13 240
2003021S11081 2003 7 SI MM FARI 2003-01-27 00:00:00 TS -15.0333 56.0333 25 1002 reunion main 591 536 O____O______O_ jtwc_sh SH112003 -14.7000 56.0000 TD 25 1002 -1 1006 120 75 -15.7000 56.1000 2 25 1002 1.50000 2.00000 -14.7000 56.0000 TC 25 15 231
2003021S11081 2003 7 SI MM FARI 2003-01-27 03:00:00 TS -15.5717 55.4276 main 525 477 P____P______P_ SH112003 -15.2324 55.4199 TD 25 1002 -1 1006 120 75 -16.2502 55.4429 2 25 1001 -15.2324 55.4199 TC 25 16 224
2003021S11081 2003 7 SI MM FARI 2003-01-27 06:00:00 TS -16.2000 54.8667 25 1001 reunion main 479 445 O____O______O_ jtwc_sh SH112003 -15.9000 54.9000 TD 25 1002 -1 1006 120 75 -16.8000 54.8000 2 25 1001 2.00000 2.00000 -15.9000 54.9000 TC 25 16 217
2003021S11081 2003 7 SI MM FARI 2003-01-27 09:00:00 TS -16.8655 54.4114 main 449 425 P____P______P_ SH112003 -16.6872 54.4500 TD 25 1002 -1 1006 120 75 -17.2221 54.3343 2 26 1000 -16.6872 54.4500 TC 25 15 214
2003021S11081 2003 7 SI MM FARI 2003-01-27 12:00:00 TS -17.4667 53.9667 28 999 reunion main 414 394 O____O______O_ jtwc_sh SH112003 -17.4000 54.0000 TD 25 1002 -1 1006 120 75 -17.6000 53.9000 2 28 999 2.00000 2.00000 -17.4000 54.0000 TC 25 14 223
2003021S11081 2003 7 SI MM FARI 2003-01-27 15:00:00 TS -17.8909 53.4215 main 399 364 P____P______P_ SH112003 -17.8251 53.4496 TD 27 1001 -1 1006 120 75 -18.0225 53.3651 2 30 997 -17.8251 53.4496 TC 27 13 235
2003021S11081 2003 7 SI MM FARI 2003-01-27 18:00:00 TS -18.2000 52.8667 33 996 reunion main 364 316 O____O______O_ jtwc_sh SH112003 -18.1000 52.9000 TD 30 1000 -1 1006 120 75 -18.4000 52.8000 2 33 996 2.50000 2.50000 -18.1000 52.9000 TC 30 12 240
2003021S11081 2003 7 SI MM FARI 2003-01-27 21:00:00 TS -18.4673 52.3705 main 318 269 P____P______P_ SH112003 -18.3648 52.4347 TD 32 998 -1 1006 120 75 -18.6724 52.2422 2 36 994 -18.3648 52.4347 TC 32 10 241
2003021S11081 2003 7 SI MM FARI 2003-01-28 00:00:00 TS -18.7000 51.9000 40 992 reunion main 269 234 O____O______O_ jtwc_sh SH112003 -18.6000 52.0000 TS 35 997 0 1006 120 75 -18.9000 51.7000 3 40 992 3.00000 3.00000 -18.6000 52.0000 TC 35 10 242
2003021S11081 2003 7 SI MM FARI 2003-01-28 03:00:00 TS -18.9474 51.4257 main 224 197 P____P______P_ SH112003 -18.8499 51.5499 TS 40 994 0 1006 120 67 -19.1424 51.1773 3 40 991 -18.8499 51.5499 TC 40 10 240
2003021S11081 2003 7 SI MM FARI 2003-01-28 06:00:00 TS -19.2000 50.9667 40 990 reunion main 197 157 O____O______O_ jtwc_sh SH112003 -19.1000 51.1000 TS 45 991 0 100 100 80 80 1006 120 60 -19.4000 50.7000 3 40 990 3.00000 3.00000 -19.1000 51.1000 TC 45 10 238
2003021S11081 2003 7 SI MM FARI 2003-01-28 09:00:00 TS -19.4816 50.5184 main 157 128 P____P______P_ SH112003 -19.3575 50.6350 TS 45 991 0 100 100 80 80 1006 120 55 -19.7298 50.2851 3 40 990 -19.3575 50.6350 TC 45 10 237
2003021S11081 2003 7 SI MM FARI 2003-01-28 12:00:00 TS -19.7333 50.1000 40 990 reunion main 128 104 O____O______O_ jtwc_sh SH112003 -19.6000 50.2000 TS 45 991 0 100 100 80 80 1006 120 50 -20.0000 49.9000 3 40 990 2.50000 3.00000 -19.6000 50.2000 TC 45 9 240
2003021S11081 2003 7 SI MM FARI 2003-01-28 15:00:00 TS -19.9031 49.7356 main 94 62 P____P______P_ SH112003 -19.8147 49.8498 TS 50 987 0 100 100 80 80 1005 120 37 -20.0799 49.5071 3 45 987 -19.8147 49.8498 TC 50 8 246
2003021S11081 2003 7 SI MM FARI 2003-01-28 18:00:00 TS -20.0333 49.3667 50 985 reunion main 62 23 O____O______O_ jtwc_sh SH112003 -20.0000 49.5000 TS 55 984 0 100 100 80 80 1005 120 25 -20.1000 49.1000 3 50 985 3.50000 3.50000 -20.0000 49.5000 TC 55 8 251
2003021S11081 2003 7 SI MM FARI 2003-01-28 21:00:00 TS -20.1511 48.9787 main 30 0 P____P______P_ SH112003 -20.1571 49.1023 TS 55 984 0 -20.1391 48.7315 3 47 986 -20.1571 49.1023 TC 55 9 252
2003021S11081 2003 7 SI MM FARI 2003-01-29 00:00:00 TS -20.3000 48.4667 45 987 reunion main 0 0 O____O______O_ jtwc_sh SH112003 -20.3000 48.6000 TS 55 984 0 -20.3000 48.2000 3 45 987 3.00000 3.50000 -20.3000 48.6000 TC 55 12 252
2003021S11081 2003 7 SI MM FARI 2003-01-29 03:00:00 TS -20.5279 47.7211 main 0 0 P____P______P_ SH112003 -20.4351 47.9372 TS 52 985 0 -20.7136 47.2887 3 990 -20.4351 47.9372 TC 52 16 251
2003021S11081 2003 7 SI MM FARI 2003-01-29 06:00:00 TS -20.8000 46.9000 reunion main 0 0 O____I______O_ jtwc_sh SH112003 -20.6000 47.2000 TS 50 987 0 -21.2000 46.3000 8 993 9.90000 -20.6000 47.2000 TC 50 15 249
2003021S11081 2003 7 SI MM FARI 2003-01-29 09:00:00 TS -21.0747 46.2292 main 0 0 P____P______P_ SH112003 -20.7962 46.5663 TS 42 992 0 -21.6317 45.5552 8 996 -20.7962 46.5663 TC 42 14 247
2003021S11081 2003 7 SI MM FARI 2003-01-29 12:00:00 TS -21.3667 45.5000 999 reunion main 0 0 O____O______O_ jtwc_sh SH112003 -21.1000 45.8000 TS 35 997 0 -21.9000 44.9000 8 999 9.90000 -21.1000 45.8000 TC 35 17 249
2003021S11081 2003 7 SI MM FARI 2003-01-29 15:00:00 TS -21.6882 44.4729 main 0 0 P____P______P_ SH112003 -21.6172 44.6075 TS 35 997 0 -21.8300 44.2037 8 999 -21.6172 44.6075 TC 35 19 252
2003021S11081 2003 7 SI MM FARI 2003-01-29 18:00:00 TS -21.9667 43.5333 25 1000 reunion main 0 0 O____O______O_ jtwc_sh SH112003 -22.1000 43.5000 TS 35 997 0 -21.7000 43.6000 8 25 1000 9.90000 -22.1000 43.5000 TC 35 14 253
2003021S11081 2003 7 SI MM FARI 2003-01-29 21:00:00 TS -22.1106 43.0249 main 23 23 P____P______P_ SH112003 -22.2711 42.9710 TS 32 998 -1 -21.7897 43.1328 8 25 1000 -22.2711 42.9710 TC 32 8 248
2003021S11081 2003 7 SI MM FARI 2003-01-30 00:00:00 TS -22.2667 42.7333 25 1000 reunion main 51 51 O____O______O_ jtwc_sh SH112003 -22.4000 42.7000 TD 30 1000 -1 1002 120 60 -22.0000 42.8000 2 25 1000 1.50000 2.00000 -22.4000 42.7000 TC 30 7 233
2003021S11081 2003 7 SI MM FARI 2003-01-30 03:00:00 TS -22.5525 42.4019 main 88 88 P____P______P_ SH112003 -22.7050 42.3329 TD 30 1000 -1 1002 120 60 -22.2474 42.5401 2 25 1000 -22.7050 42.3329 TC 30 8 216
2003021S11081 2003 7 SI MM FARI 2003-01-30 06:00:00 TS -22.9333 42.2000 25 1000 reunion main 121 121 O____O______O_ jtwc_sh SH112003 -23.1000 42.1000 TD 30 1000 -1 1003 120 60 -22.6000 42.4000 2 25 1000 2.00000 2.00000 -23.1000 42.1000 TC 30 9 194
2003021S11081 2003 7 SI MM FARI 2003-01-30 09:00:00 TS -23.3774 42.1880 main 139 132 P____P______P_ SH112003 -23.5349 42.0971 TD 30 1000 -1 -23.0625 42.3698 2 25 999 -23.5349 42.0971 TC 30 9 177
2003021S11081 2003 7 SI MM FARI 2003-01-30 12:00:00 TS -23.8667 42.2667 25 999 reunion main 134 134 O____O______O_ jtwc_sh SH112003 -24.0000 42.2000 TD 30 1000 -1 -23.6000 42.4000 2 25 999 2.00000 2.00000 -24.0000 42.2000 TC 30 9 174
2003021S11081 2003 7 SI MM FARI 2003-01-30 15:00:00 TS -24.3175 42.2804 main 143 143 P____P______P_ SH112003 -24.4125 42.2279 TD 27 1001 -1 -24.1275 42.3852 2 25 999 -24.4125 42.2279 TC 27 10 177
2003021S11081 2003 7 SI MM FARI 2003-01-30 18:00:00 TS -24.8333 42.3333 25 999 reunion main 153 148 O____O______O_ jtwc_sh SH112003 -24.9000 42.3000 TD 25 1002 -1 -24.7000 42.4000 2 25 999 1.50000 2.00000 -24.9000 42.3000 TC 25 12 172
2003021S11081 2003 7 SI MM FARI 2003-01-30 21:00:00 TS -25.4916 42.4601 main 160 160 P____P______P_ SH112003 -25.5700 42.4699 TD 25 1002 -1 -25.3348 42.4406 2 25 999 -25.5700 42.4699 TC 25 14 168
2003021S11081 2003 7 SI MM FARI 2003-01-31 00:00:00 TS -26.2000 42.6667 25 999 reunion main 186 186 O____O______O_ jtwc_sh SH112003 -26.3000 42.7000 TD 25 1002 -1 -26.0000 42.6000 2 25 999 2.00000 2.00000 -26.3000 42.7000 TC 25 14 162
2003021S11081 2003 7 SI MM FARI 2003-01-31 03:00:00 TS -26.8626 42.9540 main 226 226 P____P______P_ SH112003 -26.9500 42.9428 TD 25 1002 -1 -26.6878 42.9765 2 27 998 -26.9500 42.9428 TC 25 14 158
2003021S11081 2003 7 SI MM FARI 2003-01-31 06:00:00 TS -27.5000 43.2667 30 998 reunion main 269 269 O____O______O_ jtwc_sh SH112003 -27.6000 43.2000 TD 25 1002 -1 -27.3000 43.4000 2 30 998 2.50000 2.50000 -27.6000 43.2000 TC 25 13 157
2003021S11081 2003 7 SI MM FARI 2003-01-31 09:00:00 TS -28.0825 43.5346 main 325 321 P____P______P_ SH112003 -28.2850 43.4577 TD 25 1002 -1 -27.6774 43.6884 2 30 998 -28.2850 43.4577 TC 25 13 160
2003021S11081 2003 7 SI MM FARI 2003-01-31 12:00:00 TS -28.7000 43.7667 30 998 reunion main 372 372 O____O______O_ jtwc_sh SH112003 -29.0000 43.7000 TD 25 1002 -1 -28.1000 43.9000 2 30 998 2.00000 2.50000 -29.0000 43.7000 TC 25 14 165
2003021S11081 2003 7 SI MM FARI 2003-01-31 15:00:00 TS -29.4341 43.9482 main 443 443 P____P______P_ SH112003 -29.7499 43.8932 TD 25 1002 -1 -28.8025 44.0581 2 32 998 -29.7499 43.8932 TC 25 16 168
2003021S11081 2003 7 SI MM FARI 2003-01-31 18:00:00 MX -30.2333 44.1333 35 998 reunion main 524 524 O____O______O_ jtwc_sh SH112003 -30.5000 44.1000 TD 25 1002 -1 -29.7000 44.2000 5 35 998 9.90000 -30.5000 44.1000 TC 25 17 167
2003021S11081 2003 7 SI MM FARI 2003-01-31 21:00:00 MX -31.0724 44.3678 main 618 618 P____P______P_ SH112003 -31.2149 44.3704 TD 25 1002 -1 -30.7873 44.3627 5 35 998 -31.2149 44.3704 TC 25 17 164
2003021S11081 2003 7 SI MM FARI 2003-02-01 00:00:00 MX -31.8667 44.6667 35 998 reunion main 704 704 O____O______O_ jtwc_sh SH112003 -31.9000 44.7000 TD 25 1002 -1 -31.8000 44.6000 5 35 998 9.90000 -31.9000 44.7000 TC 25 15 160
2003021S11081 2003 7 SI MM FARI 2003-02-01 03:00:00 MX -32.4977 44.9936 main 770 770 P____P______P_ SH112003 -32.5494 45.0342 TD 25 1002 -1 -32.3943 44.9124 5 35 999 -32.5494 45.0342 TC 25 14 151
2003021S11081 2003 7 SI MM FARI 2003-02-01 06:00:00 MX -33.0800 45.4600 35 1000 reunion main 837 837 O____O______O_ jtwc_sh SH112003 -33.2000 45.5000 TD 25 1002 -1 -32.9000 45.4000 5 35 1000 9.90000 -33.2000 45.5000 TC 25 16 142
2003021S11081 2003 7 SI MM FARI 2003-02-01 09:00:00 MX -33.7473 46.1606 main 906 906 P____P______P_ SH112003 -33.8890 46.1814 TD 25 1002 -1 -33.6055 46.1399 5 35 1000 -33.8890 46.1814 TC 25 19 137
2003021S11081 2003 7 SI MM FARI 2003-02-01 12:00:00 MX -34.4667 47.0000 35 1000 reunion main 1003 1003 O____O______O_ jtwc_sh SH112003 -34.6000 47.0000 TD 25 1002 -1 -34.4000 47.0000 5 35 1000 9.90000 -34.6000 47.0000 TC 25 20 138
2003021S11081 2003 7 SI MM FARI 2003-02-01 15:00:00 ET -35.2414 47.7720 main 1093 1093 _____P________ SH112003 TD -1 -35.2414 47.7720 5 37 1000 TC 21 141
2003021S11081 2003 7 SI MM FARI 2003-02-01 18:00:00 ET -36.1000 48.6000 40 1000 reunion main 1207 1207 _____O________ -36.1000 48.6000 5 40 1000 9.90000 22 140
2003021S11081 2003 7 SI MM FARI 2003-02-01 21:00:00 ET -36.9057 49.5135 main 1316 1316 _____P________ -36.9057 49.5135 5 40 1000 23 135
2003021S11081 2003 7 SI MM FARI 2003-02-02 00:00:00 ET -37.7000 50.6000 40 1000 reunion main 1432 1432 _____O________ -37.7000 50.6000 5 40 1000 9.90000 24 131
2003021S11081 2003 7 SI MM FARI 2003-02-02 03:00:00 ET -38.4403 51.7806 main 1544 1544 _____P________ -38.4403 51.7806 5 37 1001 27 126
2003021S11081 2003 7 SI MM FARI 2003-02-02 06:00:00 ET -39.3000 53.4000 35 1002 reunion main 1618 1408 _____O________ -39.3000 53.4000 5 35 1002 9.90000 36 123
2003021S11081 2003 7 SI MM FARI 2003-02-02 09:00:00 ET -40.3984 55.7114 main 1394 1157 _____P________ -40.3984 55.7114 5 35 1002 45 121
2003021S11081 2003 7 SI MM FARI 2003-02-02 12:00:00 ET -41.6000 58.5000 35 1002 reunion main 1137 _____O________ -41.6000 58.5000 5 35 1002 9.90000 48 120

About IBTrACS Database

This database is a web-friendly format of International Best Track Archive for Climate Stewardship (IBTrACS), a global best track data archive curated by NOAA dating back to 1842.

Updated: 2021-12-06